sensor_id;sensor_type;location;lat;lon;timestamp;P1;durP1;ratioP1;P2;durP2;ratioP2
21424;SDS011;10873;51.132;16.848;2023-08-01T00:00:07;3.13;;;2.00;;
21424;SDS011;10873;51.132;16.848;2023-08-01T00:02:33;4.20;;;2.00;;
21424;SDS011;10873;51.132;16.848;2023-08-01T00:05:01;2.90;;;1.83;;
21424;SDS011;10873;51.132;16.848;2023-08-01T00:07:27;5.25;;;1.65;;
21424;SDS011;10873;51.132;16.848;2023-08-01T00:09:54;2.45;;;1.77;;
21424;SDS011;10873;51.132;16.848;2023-08-01T00:12:19;1.75;;;1.50;;
21424;SDS011;10873;51.132;16.848;2023-08-01T00:14:46;2.38;;;1.60;;
21424;SDS011;10873;51.132;16.848;2023-08-01T00:17:11;3.42;;;2.08;;
21424;SDS011;10873;51.132;16.848;2023-08-01T00:19:38;3.53;;;1.73;;
21424;SDS011;10873;51.132;16.848;2023-08-01T00:22:05;2.72;;;1.75;;
21424;SDS011;10873;51.132;16.848;2023-08-01T00:24:31;2.30;;;1.90;;
21424;SDS011;10873;51.132;16.848;2023-08-01T00:26:57;2.75;;;1.83;;
21424;SDS011;10873;51.132;16.848;2023-08-01T00:29:23;2.28;;;1.85;;
21424;SDS011;10873;51.132;16.848;2023-08-01T00:31:49;3.17;;;2.00;;
21424;SDS011;10873;51.132;16.848;2023-08-01T00:34:15;3.00;;;1.70;;
21424;SDS011;10873;51.132;16.848;2023-08-01T00:36:41;4.47;;;1.95;;
21424;SDS011;10873;51.132;16.848;2023-08-01T00:39:09;2.17;;;1.63;;
21424;SDS011;10873;51.132;16.848;2023-08-01T00:41:35;3.42;;;1.90;;
21424;SDS011;10873;51.132;16.848;2023-08-01T00:44:01;6.60;;;2.00;;
21424;SDS011;10873;51.132;16.848;2023-08-01T00:46:27;2.15;;;1.65;;
21424;SDS011;10873;51.132;16.848;2023-08-01T00:48:53;2.97;;;1.65;;
21424;SDS011;10873;51.132;16.848;2023-08-01T00:51:23;2.58;;;1.67;;
21424;SDS011;10873;51.132;16.848;2023-08-01T00:53:51;2.83;;;1.70;;
21424;SDS011;10873;51.132;16.848;2023-08-01T00:56:18;2.92;;;1.73;;
21424;SDS011;10873;51.132;16.848;2023-08-01T00:58:45;2.60;;;1.65;;
21424;SDS011;10873;51.132;16.848;2023-08-01T01:01:11;3.50;;;2.15;;
21424;SDS011;10873;51.132;16.848;2023-08-01T01:03:37;2.97;;;1.77;;
21424;SDS011;10873;51.132;16.848;2023-08-01T01:06:06;2.08;;;1.70;;
21424;SDS011;10873;51.132;16.848;2023-08-01T01:08:37;4.38;;;1.75;;
21424;SDS011;10873;51.132;16.848;2023-08-01T01:11:03;3.80;;;1.90;;
21424;SDS011;10873;51.132;16.848;2023-08-01T01:13:31;4.03;;;1.95;;
21424;SDS011;10873;51.132;16.848;2023-08-01T01:15:57;3.28;;;1.60;;
21424;SDS011;10873;51.132;16.848;2023-08-01T01:18:23;2.53;;;1.55;;
21424;SDS011;10873;51.132;16.848;2023-08-01T01:20:50;2.08;;;1.65;;
21424;SDS011;10873;51.132;16.848;2023-08-01T01:23:17;4.40;;;1.88;;
21424;SDS011;10873;51.132;16.848;2023-08-01T01:25:44;3.33;;;1.50;;
21424;SDS011;10873;51.132;16.848;2023-08-01T01:28:11;2.35;;;1.50;;
21424;SDS011;10873;51.132;16.848;2023-08-01T01:30:38;2.47;;;1.60;;
21424;SDS011;10873;51.132;16.848;2023-08-01T01:33:06;3.83;;;2.30;;
21424;SDS011;10873;51.132;16.848;2023-08-01T01:35:34;2.53;;;1.70;;
21424;SDS011;10873;51.132;16.848;2023-08-01T01:38:02;1.95;;;1.45;;
21424;SDS011;10873;51.132;16.848;2023-08-01T01:40:31;3.05;;;1.58;;
21424;SDS011;10873;51.132;16.848;2023-08-01T01:42:58;5.00;;;1.80;;
21424;SDS011;10873;51.132;16.848;2023-08-01T01:45:24;1.88;;;1.58;;
21424;SDS011;10873;51.132;16.848;2023-08-01T01:47:51;2.25;;;1.80;;
21424;SDS011;10873;51.132;16.848;2023-08-01T01:50:17;1.60;;;1.50;;
21424;SDS011;10873;51.132;16.848;2023-08-01T01:52:43;2.17;;;1.80;;
21424;SDS011;10873;51.132;16.848;2023-08-01T01:55:11;2.47;;;1.70;;
21424;SDS011;10873;51.132;16.848;2023-08-01T01:57:37;3.13;;;1.63;;
21424;SDS011;10873;51.132;16.848;2023-08-01T02:00:04;3.33;;;1.67;;
21424;SDS011;10873;51.132;16.848;2023-08-01T02:02:30;1.70;;;1.50;;
21424;SDS011;10873;51.132;16.848;2023-08-01T02:04:56;2.33;;;1.70;;
21424;SDS011;10873;51.132;16.848;2023-08-01T02:07:22;3.13;;;1.40;;
21424;SDS011;10873;51.132;16.848;2023-08-01T02:09:48;2.10;;;1.90;;
21424;SDS011;10873;51.132;16.848;2023-08-01T02:12:16;2.33;;;1.67;;
21424;SDS011;10873;51.132;16.848;2023-08-01T02:14:42;1.95;;;1.58;;
21424;SDS011;10873;51.132;16.848;2023-08-01T02:17:08;2.08;;;1.70;;
21424;SDS011;10873;51.132;16.848;2023-08-01T02:19:34;2.88;;;1.77;;
21424;SDS011;10873;51.132;16.848;2023-08-01T02:22:00;2.83;;;1.92;;
21424;SDS011;10873;51.132;16.848;2023-08-01T02:24:26;2.90;;;1.83;;
21424;SDS011;10873;51.132;16.848;2023-08-01T02:26:52;1.90;;;1.50;;
21424;SDS011;10873;51.132;16.848;2023-08-01T02:29:20;2.97;;;1.75;;
21424;SDS011;10873;51.132;16.848;2023-08-01T02:31:46;2.25;;;1.65;;
21424;SDS011;10873;51.132;16.848;2023-08-01T02:34:12;2.70;;;1.70;;
21424;SDS011;10873;51.132;16.848;2023-08-01T02:36:38;1.98;;;1.60;;
21424;SDS011;10873;51.132;16.848;2023-08-01T02:39:05;2.05;;;1.85;;
21424;SDS011;10873;51.132;16.848;2023-08-01T02:41:31;2.53;;;1.80;;
21424;SDS011;10873;51.132;16.848;2023-08-01T02:43:57;1.88;;;1.40;;
21424;SDS011;10873;51.132;16.848;2023-08-01T02:46:25;4.10;;;1.85;;
21424;SDS011;10873;51.132;16.848;2023-08-01T02:48:53;3.10;;;1.73;;
21424;SDS011;10873;51.132;16.848;2023-08-01T02:51:20;2.90;;;1.90;;
21424;SDS011;10873;51.132;16.848;2023-08-01T02:53:45;2.78;;;2.00;;
21424;SDS011;10873;51.132;16.848;2023-08-01T02:56:12;3.70;;;1.65;;
21424;SDS011;10873;51.132;16.848;2023-08-01T02:58:37;2.28;;;1.90;;
21424;SDS011;10873;51.132;16.848;2023-08-01T03:01:05;3.97;;;2.10;;
21424;SDS011;10873;51.132;16.848;2023-08-01T03:03:33;2.33;;;1.75;;
21424;SDS011;10873;51.132;16.848;2023-08-01T03:06:01;3.33;;;1.65;;
21424;SDS011;10873;51.132;16.848;2023-08-01T03:08:27;2.78;;;1.70;;
21424;SDS011;10873;51.132;16.848;2023-08-01T03:10:53;2.80;;;1.98;;
21424;SDS011;10873;51.132;16.848;2023-08-01T03:13:19;2.58;;;2.03;;
21424;SDS011;10873;51.132;16.848;2023-08-01T03:15:45;2.63;;;2.03;;
21424;SDS011;10873;51.132;16.848;2023-08-01T03:18:11;2.50;;;2.10;;
21424;SDS011;10873;51.132;16.848;2023-08-01T03:20:39;4.32;;;2.05;;
21424;SDS011;10873;51.132;16.848;2023-08-01T03:23:05;4.82;;;2.10;;
21424;SDS011;10873;51.132;16.848;2023-08-01T03:25:32;2.88;;;2.00;;
21424;SDS011;10873;51.132;16.848;2023-08-01T03:27:58;5.85;;;2.30;;
21424;SDS011;10873;51.132;16.848;2023-08-01T03:30:24;3.05;;;2.00;;
21424;SDS011;10873;51.132;16.848;2023-08-01T03:32:51;2.63;;;2.15;;
21424;SDS011;10873;51.132;16.848;2023-08-01T03:35:17;2.85;;;2.00;;
21424;SDS011;10873;51.132;16.848;2023-08-01T03:37:44;6.20;;;2.58;;
21424;SDS011;10873;51.132;16.848;2023-08-01T03:40:10;2.40;;;2.00;;
21424;SDS011;10873;51.132;16.848;2023-08-01T03:42:36;4.10;;;2.65;;
21424;SDS011;10873;51.132;16.848;2023-08-01T03:45:03;4.65;;;2.33;;
21424;SDS011;10873;51.132;16.848;2023-08-01T03:47:30;3.67;;;2.22;;
21424;SDS011;10873;51.132;16.848;2023-08-01T03:49:57;3.60;;;2.28;;
21424;SDS011;10873;51.132;16.848;2023-08-01T03:52:23;4.60;;;1.95;;
21424;SDS011;10873;51.132;16.848;2023-08-01T03:54:53;3.05;;;2.30;;
21424;SDS011;10873;51.132;16.848;2023-08-01T03:57:19;2.90;;;2.10;;
21424;SDS011;10873;51.132;16.848;2023-08-01T03:59:45;3.00;;;2.10;;
21424;SDS011;10873;51.132;16.848;2023-08-01T04:02:11;7.85;;;3.15;;
21424;SDS011;10873;51.132;16.848;2023-08-01T04:04:38;7.45;;;3.95;;
21424;SDS011;10873;51.132;16.848;2023-08-01T04:07:04;8.77;;;3.95;;
21424;SDS011;10873;51.132;16.848;2023-08-01T04:09:30;7.07;;;3.72;;
21424;SDS011;10873;51.132;16.848;2023-08-01T04:11:57;5.93;;;3.00;;
21424;SDS011;10873;51.132;16.848;2023-08-01T04:14:23;6.05;;;3.22;;
21424;SDS011;10873;51.132;16.848;2023-08-01T04:16:49;7.97;;;3.08;;
21424;SDS011;10873;51.132;16.848;2023-08-01T04:19:15;6.65;;;3.38;;
21424;SDS011;10873;51.132;16.848;2023-08-01T04:21:41;6.53;;;3.13;;
21424;SDS011;10873;51.132;16.848;2023-08-01T04:24:07;6.63;;;2.72;;
21424;SDS011;10873;51.132;16.848;2023-08-01T04:26:33;4.68;;;2.85;;
21424;SDS011;10873;51.132;16.848;2023-08-01T04:29:01;6.85;;;2.78;;
21424;SDS011;10873;51.132;16.848;2023-08-01T04:31:27;11.80;;;4.90;;
21424;SDS011;10873;51.132;16.848;2023-08-01T04:33:53;13.43;;;7.15;;
21424;SDS011;10873;51.132;16.848;2023-08-01T04:36:19;22.60;;;10.55;;
21424;SDS011;10873;51.132;16.848;2023-08-01T04:38:45;21.80;;;13.38;;
21424;SDS011;10873;51.132;16.848;2023-08-01T04:41:11;16.08;;;10.02;;
21424;SDS011;10873;51.132;16.848;2023-08-01T04:43:37;10.55;;;7.35;;
21424;SDS011;10873;51.132;16.848;2023-08-01T04:46:04;12.85;;;6.60;;
21424;SDS011;10873;51.132;16.848;2023-08-01T04:48:31;8.48;;;5.88;;
21424;SDS011;10873;51.132;16.848;2023-08-01T04:50:56;7.18;;;4.97;;
21424;SDS011;10873;51.132;16.848;2023-08-01T04:53:23;9.85;;;5.05;;
21424;SDS011;10873;51.132;16.848;2023-08-01T04:55:48;7.70;;;4.50;;
21424;SDS011;10873;51.132;16.848;2023-08-01T04:58:15;7.18;;;4.45;;
21424;SDS011;10873;51.132;16.848;2023-08-01T05:00:41;8.30;;;4.40;;
21424;SDS011;10873;51.132;16.848;2023-08-01T05:03:09;7.90;;;4.47;;
21424;SDS011;10873;51.132;16.848;2023-08-01T05:05:35;6.18;;;3.97;;
21424;SDS011;10873;51.132;16.848;2023-08-01T05:08:01;5.25;;;3.80;;
21424;SDS011;10873;51.132;16.848;2023-08-01T05:10:28;5.03;;;3.63;;
21424;SDS011;10873;51.132;16.848;2023-08-01T05:12:54;5.50;;;3.10;;
21424;SDS011;10873;51.132;16.848;2023-08-01T05:15:20;7.88;;;3.47;;
21424;SDS011;10873;51.132;16.848;2023-08-01T05:17:46;15.70;;;3.65;;
21424;SDS011;10873;51.132;16.848;2023-08-01T05:20:13;11.15;;;3.50;;
21424;SDS011;10873;51.132;16.848;2023-08-01T05:22:39;7.43;;;3.50;;
21424;SDS011;10873;51.132;16.848;2023-08-01T05:25:05;8.60;;;2.90;;
21424;SDS011;10873;51.132;16.848;2023-08-01T05:27:32;7.28;;;3.40;;
21424;SDS011;10873;51.132;16.848;2023-08-01T05:29:59;7.75;;;2.92;;
21424;SDS011;10873;51.132;16.848;2023-08-01T05:32:25;7.93;;;2.85;;
21424;SDS011;10873;51.132;16.848;2023-08-01T05:34:51;7.05;;;2.72;;
21424;SDS011;10873;51.132;16.848;2023-08-01T05:37:19;6.50;;;2.47;;
21424;SDS011;10873;51.132;16.848;2023-08-01T05:39:44;9.80;;;2.63;;
21424;SDS011;10873;51.132;16.848;2023-08-01T05:42:11;7.55;;;3.10;;
21424;SDS011;10873;51.132;16.848;2023-08-01T05:44:37;5.00;;;2.45;;
21424;SDS011;10873;51.132;16.848;2023-08-01T05:47:03;5.50;;;2.42;;
21424;SDS011;10873;51.132;16.848;2023-08-01T05:49:29;5.88;;;2.65;;
21424;SDS011;10873;51.132;16.848;2023-08-01T05:51:55;6.75;;;2.70;;
21424;SDS011;10873;51.132;16.848;2023-08-01T05:54:22;9.70;;;3.20;;
21424;SDS011;10873;51.132;16.848;2023-08-01T05:56:49;13.55;;;3.50;;
21424;SDS011;10873;51.132;16.848;2023-08-01T05:59:14;8.38;;;3.20;;
21424;SDS011;10873;51.132;16.848;2023-08-01T06:01:41;9.52;;;3.10;;
21424;SDS011;10873;51.132;16.848;2023-08-01T06:04:07;6.97;;;3.10;;
21424;SDS011;10873;51.132;16.848;2023-08-01T06:06:33;7.90;;;3.17;;
21424;SDS011;10873;51.132;16.848;2023-08-01T06:08:59;8.23;;;3.33;;
21424;SDS011;10873;51.132;16.848;2023-08-01T06:11:26;12.98;;;3.85;;
21424;SDS011;10873;51.132;16.848;2023-08-01T06:13:52;11.05;;;3.75;;
21424;SDS011;10873;51.132;16.848;2023-08-01T06:16:18;7.18;;;3.17;;
21424;SDS011;10873;51.132;16.848;2023-08-01T06:18:44;10.43;;;4.07;;
21424;SDS011;10873;51.132;16.848;2023-08-01T06:21:11;11.75;;;4.05;;
21424;SDS011;10873;51.132;16.848;2023-08-01T06:23:37;12.40;;;4.47;;
21424;SDS011;10873;51.132;16.848;2023-08-01T06:26:03;11.43;;;5.13;;
21424;SDS011;10873;51.132;16.848;2023-08-01T06:28:30;9.55;;;4.70;;
21424;SDS011;10873;51.132;16.848;2023-08-01T06:30:57;12.65;;;5.32;;
21424;SDS011;10873;51.132;16.848;2023-08-01T06:33:22;11.82;;;5.10;;
21424;SDS011;10873;51.132;16.848;2023-08-01T06:35:48;12.70;;;4.88;;
21424;SDS011;10873;51.132;16.848;2023-08-01T06:38:14;11.45;;;5.28;;
21424;SDS011;10873;51.132;16.848;2023-08-01T06:40:41;9.77;;;4.90;;
21424;SDS011;10873;51.132;16.848;2023-08-01T06:43:06;12.32;;;4.97;;
21424;SDS011;10873;51.132;16.848;2023-08-01T06:45:34;13.20;;;5.32;;
21424;SDS011;10873;51.132;16.848;2023-08-01T06:48:00;10.63;;;5.07;;
21424;SDS011;10873;51.132;16.848;2023-08-01T06:50:26;13.20;;;4.63;;
21424;SDS011;10873;51.132;16.848;2023-08-01T06:52:52;10.95;;;5.20;;
21424;SDS011;10873;51.132;16.848;2023-08-01T06:55:18;10.65;;;5.38;;
21424;SDS011;10873;51.132;16.848;2023-08-01T06:57:44;12.40;;;4.70;;
21424;SDS011;10873;51.132;16.848;2023-08-01T07:00:10;10.15;;;4.90;;
21424;SDS011;10873;51.132;16.848;2023-08-01T07:02:38;9.70;;;5.25;;
21424;SDS011;10873;51.132;16.848;2023-08-01T07:05:04;14.05;;;7.20;;
21424;SDS011;10873;51.132;16.848;2023-08-01T07:07:31;14.25;;;7.30;;
21424;SDS011;10873;51.132;16.848;2023-08-01T07:09:57;9.90;;;6.28;;
21424;SDS011;10873;51.132;16.848;2023-08-01T07:12:23;10.38;;;5.72;;
21424;SDS011;10873;51.132;16.848;2023-08-01T07:14:49;10.80;;;5.47;;
21424;SDS011;10873;51.132;16.848;2023-08-01T07:17:15;9.05;;;5.25;;
21424;SDS011;10873;51.132;16.848;2023-08-01T07:19:42;12.00;;;5.18;;
21424;SDS011;10873;51.132;16.848;2023-08-01T07:22:08;10.80;;;4.88;;
21424;SDS011;10873;51.132;16.848;2023-08-01T07:24:34;8.30;;;4.22;;
21424;SDS011;10873;51.132;16.848;2023-08-01T07:27:00;7.53;;;4.22;;
21424;SDS011;10873;51.132;16.848;2023-08-01T07:29:26;14.57;;;4.38;;
21424;SDS011;10873;51.132;16.848;2023-08-01T07:31:52;10.52;;;4.38;;
21424;SDS011;10873;51.132;16.848;2023-08-01T07:34:18;8.05;;;3.90;;
21424;SDS011;10873;51.132;16.848;2023-08-01T07:36:47;5.50;;;3.88;;
21424;SDS011;10873;51.132;16.848;2023-08-01T07:39:14;6.38;;;3.20;;
21424;SDS011;10873;51.132;16.848;2023-08-01T07:41:40;9.57;;;3.72;;
21424;SDS011;10873;51.132;16.848;2023-08-01T07:44:06;7.90;;;3.70;;
21424;SDS011;10873;51.132;16.848;2023-08-01T07:46:32;5.10;;;3.15;;
21424;SDS011;10873;51.132;16.848;2023-08-01T07:48:58;9.77;;;3.78;;
21424;SDS011;10873;51.132;16.848;2023-08-01T07:51:24;9.30;;;3.33;;
21424;SDS011;10873;51.132;16.848;2023-08-01T07:53:52;9.10;;;3.30;;
21424;SDS011;10873;51.132;16.848;2023-08-01T07:56:19;5.13;;;2.75;;
21424;SDS011;10873;51.132;16.848;2023-08-01T07:58:47;8.18;;;3.42;;
21424;SDS011;10873;51.132;16.848;2023-08-01T08:01:13;5.03;;;2.78;;
21424;SDS011;10873;51.132;16.848;2023-08-01T08:03:39;4.65;;;2.47;;
21424;SDS011;10873;51.132;16.848;2023-08-01T08:06:05;3.95;;;2.90;;
21424;SDS011;10873;51.132;16.848;2023-08-01T08:08:32;5.22;;;2.92;;
21424;SDS011;10873;51.132;16.848;2023-08-01T08:11:00;4.43;;;2.63;;
21424;SDS011;10873;51.132;16.848;2023-08-01T08:13:29;4.88;;;2.70;;
21424;SDS011;10873;51.132;16.848;2023-08-01T08:15:55;3.15;;;2.40;;
21424;SDS011;10873;51.132;16.848;2023-08-01T08:18:23;4.35;;;2.50;;
21424;SDS011;10873;51.132;16.848;2023-08-01T08:20:49;5.20;;;2.72;;
21424;SDS011;10873;51.132;16.848;2023-08-01T08:23:16;4.35;;;2.90;;
21424;SDS011;10873;51.132;16.848;2023-08-01T08:25:47;4.90;;;2.67;;
21424;SDS011;10873;51.132;16.848;2023-08-01T08:28:28;3.17;;;2.22;;
21424;SDS011;10873;51.132;16.848;2023-08-01T08:31:01;2.78;;;2.28;;
21424;SDS011;10873;51.132;16.848;2023-08-01T08:33:31;4.70;;;2.58;;
21424;SDS011;10873;51.132;16.848;2023-08-01T08:35:59;4.05;;;2.55;;
21424;SDS011;10873;51.132;16.848;2023-08-01T08:38:30;2.67;;;2.40;;
21424;SDS011;10873;51.132;16.848;2023-08-01T08:41:01;3.40;;;2.47;;
21424;SDS011;10873;51.132;16.848;2023-08-01T08:43:36;2.97;;;2.00;;
21424;SDS011;10873;51.132;16.848;2023-08-01T08:46:03;3.88;;;2.50;;
21424;SDS011;10873;51.132;16.848;2023-08-01T08:48:30;3.70;;;2.40;;
21424;SDS011;10873;51.132;16.848;2023-08-01T08:50:57;3.47;;;2.45;;
21424;SDS011;10873;51.132;16.848;2023-08-01T08:53:25;3.38;;;2.47;;
21424;SDS011;10873;51.132;16.848;2023-08-01T08:55:51;3.25;;;2.40;;
21424;SDS011;10873;51.132;16.848;2023-08-01T08:58:17;3.55;;;2.30;;
21424;SDS011;10873;51.132;16.848;2023-08-01T09:00:45;2.85;;;2.30;;
21424;SDS011;10873;51.132;16.848;2023-08-01T09:03:11;6.25;;;2.50;;
21424;SDS011;10873;51.132;16.848;2023-08-01T09:05:39;3.03;;;2.20;;
21424;SDS011;10873;51.132;16.848;2023-08-01T09:08:13;3.05;;;2.10;;
21424;SDS011;10873;51.132;16.848;2023-08-01T09:10:43;3.33;;;2.17;;
21424;SDS011;10873;51.132;16.848;2023-08-01T09:13:09;4.05;;;2.55;;
21424;SDS011;10873;51.132;16.848;2023-08-01T09:15:35;4.03;;;2.40;;
21424;SDS011;10873;51.132;16.848;2023-08-01T09:18:05;3.30;;;2.30;;
21424;SDS011;10873;51.132;16.848;2023-08-01T09:20:39;2.90;;;2.35;;
21424;SDS011;10873;51.132;16.848;2023-08-01T09:23:07;4.63;;;1.90;;
21424;SDS011;10873;51.132;16.848;2023-08-01T09:25:34;2.97;;;2.25;;
21424;SDS011;10873;51.132;16.848;2023-08-01T09:28:01;3.20;;;2.20;;
21424;SDS011;10873;51.132;16.848;2023-08-01T09:30:26;2.25;;;1.90;;
21424;SDS011;10873;51.132;16.848;2023-08-01T09:32:54;3.53;;;2.20;;
21424;SDS011;10873;51.132;16.848;2023-08-01T09:35:22;2.92;;;2.20;;
21424;SDS011;10873;51.132;16.848;2023-08-01T09:37:49;4.65;;;2.17;;
21424;SDS011;10873;51.132;16.848;2023-08-01T09:40:15;2.90;;;2.22;;
21424;SDS011;10873;51.132;16.848;2023-08-01T09:42:41;3.83;;;2.38;;
21424;SDS011;10873;51.132;16.848;2023-08-01T09:45:11;3.25;;;2.30;;
21424;SDS011;10873;51.132;16.848;2023-08-01T09:47:39;2.42;;;2.20;;
21424;SDS011;10873;51.132;16.848;2023-08-01T09:50:05;2.53;;;2.10;;
21424;SDS011;10873;51.132;16.848;2023-08-01T09:52:33;2.42;;;2.20;;
21424;SDS011;10873;51.132;16.848;2023-08-01T09:54:59;2.88;;;2.30;;
21424;SDS011;10873;51.132;16.848;2023-08-01T09:57:26;2.10;;;1.90;;
21424;SDS011;10873;51.132;16.848;2023-08-01T09:59:55;3.13;;;2.22;;
21424;SDS011;10873;51.132;16.848;2023-08-01T10:02:22;2.45;;;2.00;;
21424;SDS011;10873;51.132;16.848;2023-08-01T10:04:50;3.92;;;2.35;;
21424;SDS011;10873;51.132;16.848;2023-08-01T10:07:21;4.05;;;1.92;;
21424;SDS011;10873;51.132;16.848;2023-08-01T10:09:51;2.72;;;2.20;;
21424;SDS011;10873;51.132;16.848;2023-08-01T10:12:19;3.15;;;2.28;;
21424;SDS011;10873;51.132;16.848;2023-08-01T10:14:45;2.83;;;2.13;;
21424;SDS011;10873;51.132;16.848;2023-08-01T10:17:12;2.70;;;2.10;;
21424;SDS011;10873;51.132;16.848;2023-08-01T10:19:39;2.10;;;1.85;;
21424;SDS011;10873;51.132;16.848;2023-08-01T10:22:08;2.70;;;1.92;;
21424;SDS011;10873;51.132;16.848;2023-08-01T10:24:35;2.65;;;2.28;;
21424;SDS011;10873;51.132;16.848;2023-08-01T10:27:12;3.28;;;2.10;;
21424;SDS011;10873;51.132;16.848;2023-08-01T10:29:38;2.55;;;2.05;;
21424;SDS011;10873;51.132;16.848;2023-08-01T10:32:07;2.78;;;1.90;;
21424;SDS011;10873;51.132;16.848;2023-08-01T10:34:36;2.53;;;2.10;;
21424;SDS011;10873;51.132;16.848;2023-08-01T10:37:03;2.28;;;1.90;;
21424;SDS011;10873;51.132;16.848;2023-08-01T10:39:30;2.10;;;1.90;;
21424;SDS011;10873;51.132;16.848;2023-08-01T10:41:57;2.20;;;1.80;;
21424;SDS011;10873;51.132;16.848;2023-08-01T10:44:25;3.72;;;2.15;;
21424;SDS011;10873;51.132;16.848;2023-08-01T10:46:53;2.53;;;2.05;;
21424;SDS011;10873;51.132;16.848;2023-08-01T10:49:32;7.15;;;2.20;;
21424;SDS011;10873;51.132;16.848;2023-08-01T10:52:00;2.85;;;1.98;;
21424;SDS011;10873;51.132;16.848;2023-08-01T10:54:26;2.20;;;2.00;;
21424;SDS011;10873;51.132;16.848;2023-08-01T10:56:53;2.38;;;2.10;;
21424;SDS011;10873;51.132;16.848;2023-08-01T10:59:21;3.40;;;1.90;;
21424;SDS011;10873;51.132;16.848;2023-08-01T11:01:50;1.98;;;1.80;;
21424;SDS011;10873;51.132;16.848;2023-08-01T11:04:17;2.55;;;1.80;;
21424;SDS011;10873;51.132;16.848;2023-08-01T11:06:45;3.30;;;2.10;;
21424;SDS011;10873;51.132;16.848;2023-08-01T11:09:15;2.10;;;1.90;;
21424;SDS011;10873;51.132;16.848;2023-08-01T11:11:45;1.65;;;1.55;;
21424;SDS011;10873;51.132;16.848;2023-08-01T11:14:13;1.95;;;1.75;;
21424;SDS011;10873;51.132;16.848;2023-08-01T11:16:40;2.38;;;2.10;;
21424;SDS011;10873;51.132;16.848;2023-08-01T11:19:18;3.78;;;1.90;;
21424;SDS011;10873;51.132;16.848;2023-08-01T11:21:45;3.53;;;2.22;;
21424;SDS011;10873;51.132;16.848;2023-08-01T11:24:11;1.83;;;1.60;;
21424;SDS011;10873;51.132;16.848;2023-08-01T11:26:39;2.55;;;2.10;;
21424;SDS011;10873;51.132;16.848;2023-08-01T11:29:06;2.33;;;1.83;;
21424;SDS011;10873;51.132;16.848;2023-08-01T11:31:32;2.15;;;1.73;;
21424;SDS011;10873;51.132;16.848;2023-08-01T11:33:59;2.90;;;1.80;;
21424;SDS011;10873;51.132;16.848;2023-08-01T11:36:27;2.72;;;1.70;;
21424;SDS011;10873;51.132;16.848;2023-08-01T11:38:54;2.40;;;1.80;;
21424;SDS011;10873;51.132;16.848;2023-08-01T11:41:22;3.78;;;1.58;;
21424;SDS011;10873;51.132;16.848;2023-08-01T11:43:49;2.03;;;1.60;;
21424;SDS011;10873;51.132;16.848;2023-08-01T11:46:16;1.85;;;1.65;;
21424;SDS011;10873;51.132;16.848;2023-08-01T11:48:44;2.17;;;1.65;;
21424;SDS011;10873;51.132;16.848;2023-08-01T11:51:11;1.90;;;1.70;;
21424;SDS011;10873;51.132;16.848;2023-08-01T11:53:39;1.92;;;1.70;;
21424;SDS011;10873;51.132;16.848;2023-08-01T11:56:05;1.92;;;1.60;;
21424;SDS011;10873;51.132;16.848;2023-08-01T11:58:31;2.17;;;1.73;;
21424;SDS011;10873;51.132;16.848;2023-08-01T12:01:02;2.60;;;1.95;;
21424;SDS011;10873;51.132;16.848;2023-08-01T12:03:41;2.17;;;1.73;;
21424;SDS011;10873;51.132;16.848;2023-08-01T12:06:08;4.03;;;2.00;;
21424;SDS011;10873;51.132;16.848;2023-08-01T12:08:34;1.60;;;1.40;;
21424;SDS011;10873;51.132;16.848;2023-08-01T12:11:02;1.63;;;1.50;;
21424;SDS011;10873;51.132;16.848;2023-08-01T12:13:28;2.40;;;1.50;;
21424;SDS011;10873;51.132;16.848;2023-08-01T12:15:55;1.77;;;1.58;;
21424;SDS011;10873;51.132;16.848;2023-08-01T12:18:25;1.90;;;1.80;;
21424;SDS011;10873;51.132;16.848;2023-08-01T12:20:52;1.70;;;1.60;;
21424;SDS011;10873;51.132;16.848;2023-08-01T12:23:19;1.80;;;1.70;;
21424;SDS011;10873;51.132;16.848;2023-08-01T12:25:45;2.75;;;1.70;;
21424;SDS011;10873;51.132;16.848;2023-08-01T12:28:13;2.03;;;1.45;;
21424;SDS011;10873;51.132;16.848;2023-08-01T12:30:40;2.03;;;1.67;;
21424;SDS011;10873;51.132;16.848;2023-08-01T12:33:07;1.88;;;1.67;;
21424;SDS011;10873;51.132;16.848;2023-08-01T12:35:33;2.33;;;1.90;;
21424;SDS011;10873;51.132;16.848;2023-08-01T12:37:59;1.92;;;1.75;;
21424;SDS011;10873;51.132;16.848;2023-08-01T12:40:26;1.90;;;1.58;;
21424;SDS011;10873;51.132;16.848;2023-08-01T12:42:51;2.78;;;1.80;;
21424;SDS011;10873;51.132;16.848;2023-08-01T12:45:19;1.60;;;1.50;;
21424;SDS011;10873;51.132;16.848;2023-08-01T12:47:45;1.60;;;1.50;;
21424;SDS011;10873;51.132;16.848;2023-08-01T12:50:12;1.83;;;1.63;;
21424;SDS011;10873;51.132;16.848;2023-08-01T12:52:37;1.95;;;1.60;;
21424;SDS011;10873;51.132;16.848;2023-08-01T12:55:04;1.60;;;1.50;;
21424;SDS011;10873;51.132;16.848;2023-08-01T12:57:30;2.05;;;1.42;;
21424;SDS011;10873;51.132;16.848;2023-08-01T12:59:56;1.92;;;1.60;;
21424;SDS011;10873;51.132;16.848;2023-08-01T13:02:23;3.58;;;1.63;;
21424;SDS011;10873;51.132;16.848;2023-08-01T13:04:49;1.77;;;1.67;;
21424;SDS011;10873;51.132;16.848;2023-08-01T13:07:15;1.73;;;1.63;;
21424;SDS011;10873;51.132;16.848;2023-08-01T13:09:41;1.60;;;1.48;;
21424;SDS011;10873;51.132;16.848;2023-08-01T13:12:07;1.50;;;1.40;;
21424;SDS011;10873;51.132;16.848;2023-08-01T13:14:34;1.65;;;1.55;;
21424;SDS011;10873;51.132;16.848;2023-08-01T13:16:59;1.83;;;1.73;;
21424;SDS011;10873;51.132;16.848;2023-08-01T13:19:27;1.70;;;1.58;;
21424;SDS011;10873;51.132;16.848;2023-08-01T13:21:53;1.60;;;1.50;;
21424;SDS011;10873;51.132;16.848;2023-08-01T13:24:19;3.05;;;1.90;;
21424;SDS011;10873;51.132;16.848;2023-08-01T13:26:45;2.13;;;1.60;;
21424;SDS011;10873;51.132;16.848;2023-08-01T13:29:11;3.15;;;1.60;;
21424;SDS011;10873;51.132;16.848;2023-08-01T13:31:37;2.10;;;1.70;;
21424;SDS011;10873;51.132;16.848;2023-08-01T13:34:03;1.80;;;1.50;;
21424;SDS011;10873;51.132;16.848;2023-08-01T13:36:30;1.73;;;1.60;;
21424;SDS011;10873;51.132;16.848;2023-08-01T13:38:56;1.65;;;1.55;;
21424;SDS011;10873;51.132;16.848;2023-08-01T13:41:22;1.85;;;1.40;;
21424;SDS011;10873;51.132;16.848;2023-08-01T13:43:48;1.50;;;1.40;;
21424;SDS011;10873;51.132;16.848;2023-08-01T13:46:15;1.48;;;1.38;;
21424;SDS011;10873;51.132;16.848;2023-08-01T13:48:42;1.80;;;1.60;;
21424;SDS011;10873;51.132;16.848;2023-08-01T13:51:09;1.50;;;1.40;;
21424;SDS011;10873;51.132;16.848;2023-08-01T13:53:37;2.67;;;1.25;;
21424;SDS011;10873;51.132;16.848;2023-08-01T13:56:06;1.52;;;1.42;;
21424;SDS011;10873;51.132;16.848;2023-08-01T13:58:35;1.70;;;1.60;;
21424;SDS011;10873;51.132;16.848;2023-08-01T14:01:03;1.50;;;1.40;;
21424;SDS011;10873;51.132;16.848;2023-08-01T14:03:30;1.35;;;1.25;;
21424;SDS011;10873;51.132;16.848;2023-08-01T14:06:02;1.63;;;1.52;;
21424;SDS011;10873;51.132;16.848;2023-08-01T14:08:29;1.90;;;1.42;;
21424;SDS011;10873;51.132;16.848;2023-08-01T14:10:56;1.67;;;1.30;;
21424;SDS011;10873;51.132;16.848;2023-08-01T14:13:23;1.33;;;1.23;;
21424;SDS011;10873;51.132;16.848;2023-08-01T14:15:49;3.03;;;1.13;;
21424;SDS011;10873;51.132;16.848;2023-08-01T14:18:15;15.82;;;2.92;;
21424;SDS011;10873;51.132;16.848;2023-08-01T14:20:42;12.55;;;2.88;;
21424;SDS011;10873;51.132;16.848;2023-08-01T14:23:08;8.32;;;2.20;;
21424;SDS011;10873;51.132;16.848;2023-08-01T14:25:34;8.07;;;2.10;;
21424;SDS011;10873;51.132;16.848;2023-08-01T14:28:04;4.75;;;1.80;;
21424;SDS011;10873;51.132;16.848;2023-08-01T14:30:30;3.70;;;1.75;;